createdAt,value
2024-03-12T00:00:03.521Z,84.29
2024-03-12T00:05:03.509Z,84.37
2024-03-12T00:10:03.257Z,84.53
2024-03-12T00:15:02.953Z,84.57
2024-03-12T00:20:02.560Z,84.61
2024-03-12T00:25:03.476Z,84.51
2024-03-12T00:30:03.062Z,84.53
2024-03-12T00:35:02.613Z,84.6
2024-03-12T00:40:03.288Z,84.64
2024-03-12T00:45:03.099Z,84.76
2024-03-12T00:50:02.624Z,84.81
2024-03-12T00:55:03.221Z,84.75
2024-03-12T01:00:02.826Z,84.75
2024-03-12T01:05:03.270Z,84.78
2024-03-12T01:10:02.814Z,84.82
2024-03-12T01:15:02.464Z,84.74
2024-03-12T01:20:03.080Z,84.77
2024-03-12T01:25:02.861Z,84.73
2024-03-12T01:30:02.483Z,84.68
2024-03-12T01:35:03.228Z,84.69
2024-03-12T01:40:02.784Z,84.81
2024-03-12T01:45:03.388Z,84.89
2024-03-12T01:50:03.033Z,84.9
2024-03-12T01:55:02.582Z,84.83
2024-03-12T02:00:04.497Z,84.87
2024-03-12T02:05:02.949Z,84.95
2024-03-12T02:10:02.640Z,84.97
2024-03-12T02:15:03.336Z,85.19
2024-03-12T02:20:02.992Z,85.22
2024-03-12T02:25:02.651Z,85.27
2024-03-12T02:30:03.286Z,85.44
2024-03-12T02:35:02.823Z,85.53
2024-03-12T02:40:03.342Z,85.89
2024-03-12T02:45:03.037Z,86.25
2024-03-12T02:50:02.635Z,86.62
2024-03-12T02:55:03.235Z,86.85
2024-03-12T03:00:02.800Z,86.91
2024-03-12T03:05:03.359Z,86.96
2024-03-12T03:10:02.939Z,87
2024-03-12T03:15:02.453Z,87.02
2024-03-12T03:20:03.098Z,87.02
2024-03-12T03:25:02.802Z,87.18
2024-03-12T03:30:02.481Z,87.34
2024-03-12T03:35:02.963Z,87.4
2024-03-12T03:40:02.663Z,87.38
2024-03-12T03:45:03.293Z,87.52
2024-03-12T03:50:02.801Z,87.6
2024-03-12T03:55:03.442Z,87.57
2024-03-12T04:00:03.013Z,87.5
2024-03-12T04:05:02.485Z,87.36
2024-03-12T04:10:03.581Z,87.34
2024-03-12T04:15:03.433Z,87.39
2024-03-12T04:20:02.973Z,87.47
2024-03-12T04:25:02.612Z,87.64
2024-03-12T04:30:03.241Z,87.75
2024-03-12T04:35:02.680Z,87.86
2024-03-12T04:40:03.477Z,88.02
2024-03-12T04:45:03.085Z,88.18
2024-03-12T04:50:02.523Z,88.33
2024-03-12T04:55:03.139Z,88.45
2024-03-12T05:00:02.733Z,88.64
2024-03-12T05:05:03.293Z,88.81
2024-03-12T05:10:02.815Z,89
2024-03-12T05:15:03.426Z,89.18
2024-03-12T05:20:02.930Z,89.3
2024-03-12T05:25:02.522Z,89.37
2024-03-12T05:30:03.146Z,89.35
2024-03-12T05:35:02.687Z,89.29
2024-03-12T05:40:03.251Z,89.25
2024-03-12T05:45:02.856Z,89.21
2024-03-12T05:50:03.534Z,89.16
2024-03-12T05:55:03.348Z,89.1
2024-03-12T06:00:02.927Z,89.02
2024-03-12T06:05:02.435Z,88.94
2024-03-12T06:10:03.013Z,88.87
2024-03-12T06:15:02.753Z,88.88
2024-03-12T06:20:03.247Z,88.94
2024-03-12T06:25:02.861Z,88.96
2024-03-12T06:30:02.673Z,88.95
2024-03-12T06:35:03.395Z,88.98
2024-03-12T06:40:02.989Z,89.04
2024-03-12T06:45:02.530Z,89.15
2024-03-12T06:50:04.221Z,89.21
2024-03-12T06:55:02.903Z,89.22
2024-03-12T07:00:02.415Z,89.3
2024-03-12T07:05:03.110Z,89.35
2024-03-12T07:10:02.966Z,89.33
2024-03-12T07:15:02.443Z,89.35
2024-03-12T07:20:03.021Z,89.39
2024-03-12T07:25:02.570Z,89.38
2024-03-12T07:30:03.084Z,89.31
2024-03-12T07:35:02.539Z,89.3
2024-03-12T07:40:03.145Z,89.39
2024-03-12T07:45:02.723Z,89.62
2024-03-12T07:50:03.156Z,89.82
2024-03-12T07:55:02.711Z,89.9
2024-03-12T08:00:03.169Z,89.96
2024-03-12T08:05:02.794Z,90.04
2024-03-12T08:10:03.436Z,90.05
2024-03-12T08:15:03.713Z,89.96
2024-03-12T08:20:03.354Z,89.91
2024-03-12T08:25:02.886Z,89.87
2024-03-12T08:30:02.434Z,89.82
2024-03-12T08:35:02.960Z,89.87
2024-03-12T08:40:02.501Z,90
2024-03-12T08:45:03.317Z,90.1
2024-03-12T08:50:02.824Z,90.04
2024-03-12T08:55:03.398Z,90.12
2024-03-12T09:00:03.111Z,90.22
2024-03-12T09:05:02.676Z,90.17
2024-03-12T09:10:03.393Z,90.25
2024-03-12T09:15:02.962Z,90.4
2024-03-12T09:20:02.496Z,90.61
2024-03-12T09:25:03.024Z,90.65
2024-03-12T09:30:02.653Z,90.62
2024-03-12T09:35:03.197Z,90.69
2024-03-12T09:40:03.370Z,90.82
2024-03-12T09:45:02.978Z,91.02
2024-03-12T09:50:04.932Z,91.23
2024-03-12T09:55:02.823Z,91.5
2024-03-12T10:00:02.337Z,91.75
2024-03-12T10:05:03.017Z,92.04
2024-03-12T10:10:02.628Z,92.36
2024-03-12T10:15:03.407Z,92.55
2024-03-12T10:20:04.542Z,92.65
2024-03-12T10:25:02.635Z,92.69
2024-03-12T10:30:03.184Z,92.27
2024-03-12T10:35:02.694Z,91.81
2024-03-12T10:40:03.327Z,91.41
2024-03-12T10:45:02.784Z,91.07
2024-03-12T10:50:03.821Z,91.05
2024-03-12T10:55:09.750Z,91.34
2024-03-12T11:00:03.300Z,91.58
2024-03-12T11:05:04.124Z,91.64
2024-03-12T11:10:02.768Z,91.49
2024-03-12T11:15:05.698Z,91.13
2024-03-12T11:20:03.930Z,90.75
2024-03-12T11:25:03.641Z,90.33
2024-03-12T11:30:03.815Z,90.08
2024-03-12T11:35:04.003Z,89.96
2024-03-12T11:40:03.831Z,89.74
2024-03-12T11:45:04.281Z,89.47
2024-03-12T11:50:05.111Z,89.61
2024-03-12T11:55:04.379Z,89.58
2024-03-12T12:00:04.412Z,89.3
2024-03-12T12:05:02.969Z,89.13
2024-03-12T12:10:04.194Z,88.98
2024-03-12T12:15:03.681Z,88.5
2024-03-12T12:20:03.408Z,87.96
2024-03-12T12:25:03.071Z,87.65
2024-03-12T12:30:04.349Z,87.42
2024-03-12T12:35:03.287Z,87.17
2024-03-12T12:40:04.427Z,86.93
2024-03-12T12:45:02.951Z,86.63
2024-03-12T12:50:02.411Z,86.29
2024-03-12T12:55:02.935Z,86.16
2024-03-12T13:00:02.446Z,86.48
2024-03-12T13:05:02.952Z,87.04
2024-03-12T13:10:02.439Z,87.45
2024-03-12T13:15:03.405Z,87.79
2024-03-12T13:20:02.941Z,87.99
2024-03-12T13:25:02.441Z,87.87
2024-03-12T13:30:03.450Z,87.84
2024-03-12T13:35:03.199Z,87.89
2024-03-12T13:40:02.712Z,87.83
2024-03-12T13:45:03.413Z,87.82
2024-03-12T13:50:03.092Z,87.86
2024-03-12T13:55:02.621Z,87.85
2024-03-12T14:00:02.726Z,87.8
2024-03-12T14:05:05.648Z,87.86
2024-03-12T14:10:02.574Z,87.86
2024-03-12T14:15:03.290Z,87.94
2024-03-12T14:20:02.866Z,88.4
2024-03-12T14:25:02.501Z,88.92
2024-03-12T14:30:03.165Z,89.26
2024-03-12T14:35:02.759Z,89.46
2024-03-12T14:40:03.446Z,89.65
2024-03-12T14:45:03.055Z,90.12
2024-03-12T14:50:02.572Z,90.66
2024-03-12T14:55:03.135Z,91.15
2024-03-12T15:00:05.567Z,91.62
2024-03-12T15:05:02.390Z,91.9
2024-03-12T15:10:03.100Z,92.28
2024-03-12T15:15:02.712Z,92.62
2024-03-12T15:20:03.279Z,92.92
2024-03-12T15:25:02.872Z,93.17
2024-03-12T15:30:02.659Z,93.34
2024-03-12T15:35:03.324Z,93.46
2024-03-12T15:40:02.933Z,93.53
2024-03-12T15:45:02.477Z,93.66
2024-03-12T15:50:03.005Z,93.77
2024-03-12T15:55:02.601Z,93.79
2024-03-12T16:00:03.196Z,93.83
2024-03-12T16:05:02.751Z,93.84
2024-03-12T16:10:03.655Z,93.82
2024-03-12T16:15:03.357Z,93.73
2024-03-12T16:20:03.156Z,93.61
2024-03-12T16:25:02.732Z,93.52
2024-03-12T16:30:03.260Z,93.4
2024-03-12T16:35:02.956Z,93.26
2024-03-12T16:40:02.681Z,93.13
2024-03-12T16:45:03.223Z,92.95
2024-03-12T16:50:02.766Z,92.78
2024-03-12T16:55:03.331Z,92.6
2024-03-12T17:00:02.823Z,92.43
2024-03-12T17:05:03.350Z,92.22
2024-03-12T17:10:03.021Z,92.03
2024-03-12T17:15:02.709Z,91.88
2024-03-12T17:20:03.323Z,91.79
2024-03-12T17:25:03.048Z,91.65
2024-03-12T17:30:03.230Z,91.43
2024-03-12T17:35:02.830Z,91.33
2024-03-12T17:40:02.402Z,91.27
2024-03-12T17:45:02.960Z,91.22
2024-03-12T17:50:02.419Z,91.07
2024-03-12T17:55:02.990Z,91.07
2024-03-12T18:00:04.586Z,91.11
2024-03-12T18:05:03.378Z,91.18
2024-03-12T18:10:03.082Z,91.16
2024-03-12T18:15:02.638Z,91.12
2024-03-12T18:20:03.290Z,91.07
2024-03-12T18:25:02.974Z,91.06
2024-03-12T18:30:02.478Z,91.03
2024-03-12T18:35:03.014Z,91
2024-03-12T18:40:03.747Z,90.95
2024-03-12T18:45:04.082Z,90.88
2024-03-12T18:50:02.788Z,90.83
2024-03-12T18:55:03.535Z,90.77
2024-03-12T19:00:04.301Z,90.68
2024-03-12T19:05:02.824Z,90.64
2024-03-12T19:10:03.340Z,90.63
2024-03-12T19:15:02.905Z,90.67
2024-03-12T19:20:02.512Z,90.69
2024-03-12T19:25:03.060Z,90.77
2024-03-12T19:30:02.554Z,90.79
2024-03-12T19:35:03.081Z,90.77
2024-03-12T19:40:02.850Z,90.81
2024-03-12T19:45:03.492Z,90.86
2024-03-12T19:50:03.295Z,90.86
2024-03-12T19:55:03.546Z,90.96
2024-03-12T20:00:03.780Z,91.01
2024-03-12T20:05:04.084Z,90.99
2024-03-12T20:10:02.815Z,91.05
2024-03-12T20:15:03.343Z,91.1
2024-03-12T20:20:02.808Z,91.23
2024-03-12T20:25:03.360Z,91.37
2024-03-12T20:30:02.813Z,91.46
2024-03-12T20:35:03.419Z,91.46
2024-03-12T20:40:03.041Z,91.53
2024-03-12T20:45:02.681Z,91.5
2024-03-12T20:50:03.206Z,91.52
2024-03-12T20:55:02.793Z,91.58
2024-03-12T21:00:03.301Z,91.61
2024-03-12T21:05:02.832Z,91.58
2024-03-12T21:10:03.432Z,91.6
2024-03-12T21:15:03.009Z,91.63
2024-03-12T21:20:03.151Z,91.54
2024-03-12T21:25:02.724Z,91.56
2024-03-12T21:30:03.340Z,91.64
2024-03-12T21:35:02.783Z,91.71
2024-03-12T21:40:03.342Z,91.8
2024-03-12T21:45:02.946Z,91.85
2024-03-12T21:50:02.375Z,91.95
2024-03-12T21:55:02.958Z,92.01
2024-03-12T22:00:02.393Z,92.05
2024-03-12T22:05:02.951Z,92.11
2024-03-12T22:10:02.566Z,92.21
2024-03-12T22:15:03.179Z,92.24
2024-03-12T22:20:03.203Z,92.21
2024-03-12T22:25:02.785Z,92.31
2024-03-12T22:30:03.286Z,92.35
2024-03-12T22:35:02.884Z,92.34
2024-03-12T22:40:02.558Z,92.46
2024-03-12T22:45:03.406Z,92.55
2024-03-12T22:50:03.266Z,92.58
2024-03-12T22:55:03.009Z,92.59
2024-03-12T23:00:02.707Z,92.59
2024-03-12T23:05:03.986Z,92.66
2024-03-12T23:10:02.648Z,92.66
2024-03-12T23:15:03.323Z,92.68
2024-03-12T23:20:03.318Z,92.84
2024-03-12T23:25:03.050Z,92.91
2024-03-12T23:30:03.086Z,92.96
2024-03-12T23:35:02.843Z,92.98
2024-03-12T23:40:02.613Z,92.95
2024-03-12T23:45:03.252Z,92.98
2024-03-12T23:50:02.980Z,92.92
2024-03-12T23:55:02.709Z,92.91
